createdAt,value
2018-01-13T00:12:44.350Z,6.78
2018-01-13T00:33:17.678Z,6.63
2018-01-13T00:53:50.591Z,6.60
2018-01-13T01:14:26.478Z,6.50
2018-01-13T01:35:01.133Z,6.35
2018-01-13T01:55:37.325Z,6.33
2018-01-13T02:16:13.834Z,6.23
2018-01-13T02:36:47.876Z,6.05
2018-01-13T02:57:21.910Z,6.00
2018-01-13T03:17:57.177Z,5.70
2018-01-13T03:38:29.377Z,5.51
2018-01-13T03:59:03.082Z,5.33
2018-01-13T04:19:36.849Z,5.06
2018-01-13T04:40:11.201Z,4.97
2018-01-13T05:00:42.480Z,4.98
2018-01-13T05:21:17.766Z,5.03
2018-01-13T05:41:54.555Z,4.96
2018-01-13T06:02:29.237Z,5.01
2018-01-13T06:23:06.020Z,5.00
2018-01-13T06:43:40.366Z,4.90
2018-01-13T07:04:16.867Z,4.86
2018-01-13T07:24:53.184Z,4.68
2018-01-13T07:45:27.517Z,4.78
2018-01-13T08:06:11.586Z,4.90
2018-01-13T08:26:46.858Z,4.95
2018-01-13T08:47:22.360Z,4.98
2018-01-13T09:07:58.020Z,5.09
2018-01-13T09:28:32.362Z,5.04
2018-01-13T09:49:07.637Z,5.06
2018-01-13T10:09:43.829Z,4.96
2018-01-13T10:30:22.173Z,5.18
2018-01-13T10:50:56.213Z,5.38
2018-01-13T11:11:33.636Z,5.59
2018-01-13T11:32:09.829Z,5.77
2018-01-13T11:52:43.306Z,6.01
2018-01-13T12:13:17.300Z,6.19
2018-01-13T12:33:49.502Z,6.13
2018-01-13T12:54:22.615Z,6.14
2018-01-13T13:14:55.743Z,6.12
2018-01-13T13:35:30.089Z,5.89
2018-01-13T13:56:05.360Z,5.79
2018-01-13T14:16:40.633Z,5.87
2018-01-13T14:37:19.892Z,5.83
2018-01-13T14:57:53.020Z,6.17
2018-01-13T15:18:28.900Z,6.16
2018-01-13T15:39:01.409Z,6.18
2018-01-13T15:59:39.080Z,6.20
2018-01-13T16:20:13.227Z,6.07
2018-01-13T16:40:52.136Z,5.99
2018-01-13T17:01:32.937Z,5.97
2018-01-13T17:22:11.099Z,5.82
2018-01-13T17:42:48.091Z,5.90
2018-01-13T18:03:26.132Z,5.93
2018-01-13T18:23:59.565Z,5.95
2018-01-13T18:44:36.668Z,5.91
2018-01-13T19:05:14.717Z,5.90
2018-01-13T19:25:50.287Z,5.90
2018-01-13T19:46:25.566Z,5.94
2018-01-13T20:07:00.832Z,5.98
2018-01-13T20:45:36.954Z,5.95
2018-01-13T21:06:12.191Z,5.87
2018-01-13T21:26:44.937Z,5.77
2018-01-13T21:47:19.617Z,5.78
2018-01-13T22:07:52.717Z,5.57
2018-01-13T22:28:29.072Z,5.58
2018-01-13T22:49:04.296Z,5.44
2018-01-13T23:09:41.298Z,5.40
2018-01-13T23:30:16.569Z,5.33
2018-01-13T23:50:49.688Z,5.24
